createdAt,value
2024-02-24T00:00:46.520Z,97400.00
2024-02-24T00:03:23.185Z,97400.00
2024-02-24T00:06:24.964Z,97407.00
2024-02-24T00:08:55.028Z,97402.00
2024-02-24T00:11:43.127Z,97398.00
2024-02-24T00:15:26.162Z,97397.00
2024-02-24T00:35:55.869Z,97368.00
2024-02-24T00:39:03.733Z,97350.00
2024-02-24T00:42:18.734Z,97344.00
2024-02-24T00:45:09.757Z,97342.00
2024-02-24T00:51:42.934Z,97352.00
2024-02-24T00:54:43.820Z,97341.00
2024-02-24T00:57:29.742Z,97344.00
2024-02-24T01:00:15.809Z,97354.00
2024-02-24T01:03:08.921Z,97347.00
2024-02-24T01:05:54.648Z,97359.00
2024-02-24T01:08:30.924Z,97361.00
2024-02-24T01:14:26.272Z,97363.00
2024-02-24T01:16:58.865Z,97366.00
2024-02-24T01:20:07.093Z,97366.00
2024-02-24T01:22:49.731Z,97354.00
2024-02-24T01:25:25.993Z,97359.00
2024-02-24T01:28:12.508Z,97360.00
2024-02-24T01:31:01.998Z,97354.00
2024-02-24T01:33:32.125Z,97356.00
2024-02-24T01:35:59.223Z,97349.00
2024-02-24T01:38:28.885Z,97349.00
2024-02-24T01:41:00.725Z,97353.00
2024-02-24T01:44:01.252Z,97350.00
2024-02-24T01:46:40.162Z,97348.00
2024-02-24T01:49:20.079Z,97337.00
2024-02-24T01:51:52.761Z,97334.00
2024-02-24T01:54:35.731Z,97344.00
2024-02-24T01:57:19.827Z,97352.00
2024-02-24T01:59:49.360Z,97354.00
2024-02-24T02:05:44.761Z,97359.00
2024-02-24T02:08:12.040Z,97357.00
2024-02-24T02:10:46.866Z,97353.00
2024-02-24T02:13:21.981Z,97344.00
2024-02-24T02:16:07.412Z,97342.00
2024-02-24T02:18:44.459Z,97345.00
2024-02-24T02:21:26.087Z,97348.00
2024-02-24T02:24:06.630Z,97346.00
2024-02-24T02:26:38.615Z,97342.00
2024-02-24T02:29:18.938Z,97326.00
2024-02-24T02:31:53.781Z,97328.00
2024-02-24T02:34:40.041Z,97334.00
2024-02-24T02:37:09.738Z,97337.00
2024-02-24T02:39:49.974Z,97327.00
2024-02-24T02:42:21.939Z,97343.00
2024-02-24T02:45:04.202Z,97332.00
2024-02-24T02:47:38.623Z,97342.00
2024-02-24T02:50:07.305Z,97341.00
2024-02-24T02:52:49.803Z,97332.00
2024-02-24T02:55:32.745Z,97340.00
2024-02-24T02:58:08.115Z,97339.00
2024-02-24T03:00:43.476Z,97345.00
2024-02-24T03:03:15.143Z,97333.00
2024-02-24T03:05:53.110Z,97330.00
2024-02-24T03:08:27.009Z,97327.00
2024-02-24T03:10:57.703Z,97343.00
2024-02-24T03:13:27.420Z,97339.00
2024-02-24T03:16:00.967Z,97354.00
2024-02-24T03:18:28.140Z,97351.00
2024-02-24T03:21:08.486Z,97341.00
2024-02-24T03:23:52.109Z,97337.00
2024-02-24T03:26:25.746Z,97329.00
2024-02-24T03:28:55.226Z,97330.00
2024-02-24T03:31:29.749Z,97328.00
2024-02-24T03:34:02.252Z,97333.00
2024-02-24T03:36:31.724Z,97337.00
2024-02-24T03:38:59.996Z,97335.00
2024-02-24T03:41:34.196Z,97329.00
2024-02-24T03:44:01.591Z,97335.00
2024-02-24T03:46:32.968Z,97336.00
2024-02-24T03:49:06.631Z,97347.00
2024-02-24T03:51:33.851Z,97347.00
2024-02-24T03:54:03.988Z,97336.00
2024-02-24T03:56:38.604Z,97343.00
2024-02-24T03:59:05.864Z,97336.00
2024-02-24T04:01:35.275Z,97343.00
2024-02-24T04:04:06.284Z,97348.00
2024-02-24T04:06:37.480Z,97346.00
2024-02-24T04:09:09.995Z,97342.00
2024-02-24T04:11:39.933Z,97349.00
2024-02-24T04:14:11.199Z,97352.00
2024-02-24T04:16:41.334Z,97354.00
2024-02-24T04:19:13.957Z,97361.00
2024-02-24T04:21:54.272Z,97359.00
2024-02-24T04:24:30.207Z,97371.00
2024-02-24T04:27:01.524Z,97368.00
2024-02-24T04:29:32.407Z,97366.00
2024-02-24T04:32:07.068Z,97374.00
2024-02-24T04:34:39.363Z,97373.00
2024-02-24T04:37:06.624Z,97379.00
2024-02-24T04:39:36.529Z,97386.00
2024-02-24T04:42:21.242Z,97376.00
2024-02-24T04:44:50.905Z,97382.00
2024-02-24T04:47:19.580Z,97388.00
2024-02-24T04:49:52.826Z,97386.00
2024-02-24T04:52:25.189Z,97393.00
2024-02-24T04:54:56.901Z,97399.00
2024-02-24T04:57:36.074Z,97409.00
2024-02-24T05:00:14.635Z,97407.00
2024-02-24T05:02:41.725Z,97410.00
2024-02-24T05:05:12.241Z,97415.00
2024-02-24T05:07:46.692Z,97420.00
2024-02-24T05:10:13.857Z,97433.00
2024-02-24T05:12:49.483Z,97446.00
2024-02-24T05:15:27.175Z,97434.00
2024-02-24T05:17:57.286Z,97436.00
2024-02-24T05:20:24.604Z,97436.00
2024-02-24T05:22:56.526Z,97440.00
2024-02-24T05:25:28.030Z,97439.00
2024-02-24T05:28:01.500Z,97431.00
2024-02-24T05:30:30.435Z,97448.00
2024-02-24T05:33:10.727Z,97442.00
2024-02-24T05:35:42.524Z,97455.00
2024-02-24T05:38:15.140Z,97455.00
2024-02-24T05:40:42.150Z,97466.00
2024-02-24T05:43:09.190Z,97459.00
2024-02-24T05:45:36.633Z,97463.00
2024-02-24T05:48:04.771Z,97472.00
2024-02-24T05:50:31.841Z,97482.00
2024-02-24T05:52:58.784Z,97496.00
2024-02-24T05:55:25.981Z,97502.00
2024-02-24T05:57:53.048Z,97500.00
2024-02-24T06:00:22.440Z,97509.00
2024-02-24T06:02:49.714Z,97503.00
2024-02-24T06:05:19.361Z,97526.00
2024-02-24T06:07:46.562Z,97505.00
2024-02-24T06:10:13.779Z,97520.00
2024-02-24T06:12:45.997Z,97526.00
2024-02-24T06:15:13.026Z,97527.00
2024-02-24T06:17:40.395Z,97534.00
2024-02-24T06:20:14.000Z,97545.00
2024-02-24T06:22:41.000Z,97545.00
2024-02-24T06:25:08.436Z,97556.00
2024-02-24T06:27:39.210Z,97553.00
2024-02-24T06:30:10.389Z,97562.00
2024-02-24T06:32:37.635Z,97553.00
2024-02-24T06:35:10.656Z,97566.00
2024-02-24T06:37:42.762Z,97562.00
2024-02-24T06:40:14.825Z,97578.00
2024-02-24T06:42:52.509Z,97581.00
2024-02-24T06:45:28.768Z,97587.00
2024-02-24T06:48:06.065Z,97595.00
2024-02-24T06:50:42.400Z,97602.00
2024-02-24T06:53:14.600Z,97601.00
2024-02-24T06:55:47.764Z,97605.00
2024-02-24T06:58:17.501Z,97611.00
2024-02-24T07:00:44.784Z,97618.00
2024-02-24T07:03:12.546Z,97632.00
2024-02-24T07:05:39.876Z,97637.00
2024-02-24T07:08:09.793Z,97646.00
2024-02-24T07:10:41.771Z,97650.00
2024-02-24T07:13:10.510Z,97660.00
2024-02-24T07:15:44.044Z,97658.00
2024-02-24T07:18:20.997Z,97663.00
2024-02-24T07:20:48.467Z,97670.00
2024-02-24T07:23:15.363Z,97673.00
2024-02-24T07:25:42.926Z,97689.00
2024-02-24T07:28:15.232Z,97684.00
2024-02-24T07:30:42.120Z,97682.00
2024-02-24T07:33:19.447Z,97691.00
2024-02-24T07:35:50.534Z,97696.00
2024-02-24T07:38:17.647Z,97700.00
2024-02-24T07:40:44.544Z,97710.00
2024-02-24T07:43:18.933Z,97711.00
2024-02-24T07:45:55.142Z,97715.00
2024-02-24T07:48:24.684Z,97715.00
2024-02-24T07:50:51.592Z,97717.00
2024-02-24T07:53:18.420Z,97729.00
2024-02-24T07:55:45.237Z,97725.00
2024-02-24T07:58:12.846Z,97719.00
2024-02-24T08:00:39.647Z,97720.00
2024-02-24T08:03:06.505Z,97727.00
2024-02-24T08:05:33.325Z,97742.00
2024-02-24T08:08:00.170Z,97735.00
2024-02-24T08:10:26.906Z,97730.00
2024-02-24T08:12:53.732Z,97735.00
2024-02-24T08:15:20.463Z,97731.00
2024-02-24T08:17:47.264Z,97731.00
2024-02-24T08:20:14.587Z,97729.00
2024-02-24T08:22:41.802Z,97728.00
2024-02-24T08:25:09.018Z,97739.00
2024-02-24T08:27:35.847Z,97736.00
2024-02-24T08:30:03.292Z,97746.00
2024-02-24T08:32:31.137Z,97752.00
2024-02-24T08:34:58.017Z,97741.00
2024-02-24T08:37:24.818Z,97761.00
2024-02-24T08:39:51.621Z,97750.00
2024-02-24T08:42:18.488Z,97760.00
2024-02-24T08:44:45.247Z,97768.00
2024-02-24T08:47:12.082Z,97771.00
2024-02-24T08:49:38.850Z,97768.00
2024-02-24T08:52:06.365Z,97762.00
2024-02-24T08:54:36.132Z,97761.00
2024-02-24T08:57:03.220Z,97761.00
2024-02-24T08:59:30.017Z,97750.00
2024-02-24T09:01:56.834Z,97743.00
2024-02-24T09:04:23.713Z,97748.00
2024-02-24T09:06:50.744Z,97748.00
2024-02-24T09:09:17.788Z,97746.00
2024-02-24T09:11:47.492Z,97750.00
2024-02-24T09:14:14.792Z,97758.00
2024-02-24T09:16:41.650Z,97753.00
2024-02-24T09:19:08.533Z,97741.00
2024-02-24T09:21:35.340Z,97746.00
2024-02-24T09:24:02.204Z,97759.00
2024-02-24T09:26:29.666Z,97756.00
2024-02-24T09:28:56.420Z,97754.00
2024-02-24T09:31:28.986Z,97760.00
2024-02-24T09:33:59.019Z,97773.00
2024-02-24T09:36:26.022Z,97779.00
2024-02-24T09:38:52.797Z,97768.00
2024-02-24T09:41:19.715Z,97767.00
2024-02-24T09:43:47.745Z,97779.00
2024-02-24T09:46:17.820Z,97776.00
2024-02-24T09:48:50.551Z,97783.00
2024-02-24T09:51:17.572Z,97772.00
2024-02-24T09:53:44.436Z,97777.00
2024-02-24T09:56:12.638Z,97793.00
2024-02-24T09:58:42.158Z,97793.00
2024-02-24T10:01:10.361Z,97796.00
2024-02-24T10:03:48.895Z,97803.00
2024-02-24T10:06:16.072Z,97789.00
2024-02-24T10:08:42.968Z,97789.00
2024-02-24T10:11:11.777Z,97799.00
2024-02-24T10:13:39.162Z,97802.00
2024-02-24T10:16:09.313Z,97814.00
2024-02-24T10:18:41.724Z,97798.00
2024-02-24T10:21:08.701Z,97808.00
2024-02-24T10:23:35.567Z,97820.00
2024-02-24T10:26:05.276Z,97812.00
2024-02-24T10:28:32.772Z,97810.00
2024-02-24T10:31:00.159Z,97801.00
2024-02-24T10:33:34.303Z,97803.00
2024-02-24T10:36:05.400Z,97808.00
2024-02-24T10:38:41.819Z,97814.00
2024-02-24T10:41:12.291Z,97826.00
2024-02-24T10:43:40.217Z,97825.00
2024-02-24T10:46:07.037Z,97813.00
2024-02-24T10:48:34.019Z,97819.00
2024-02-24T10:51:01.622Z,97815.00
2024-02-24T10:53:32.264Z,97815.00
2024-02-24T10:56:02.785Z,97826.00
2024-02-24T10:58:29.970Z,97827.00
2024-02-24T11:00:57.186Z,97820.00
2024-02-24T11:03:24.598Z,97832.00
2024-02-24T11:05:52.844Z,97833.00
2024-02-24T11:08:42.177Z,97822.00
2024-02-24T11:11:12.123Z,97823.00
2024-02-24T11:13:59.618Z,97828.00
2024-02-24T11:16:36.962Z,97821.00
2024-02-24T11:19:06.393Z,97830.00
2024-02-24T11:22:03.646Z,97834.00
2024-02-24T11:24:32.510Z,97839.00
2024-02-24T11:26:59.522Z,97833.00
2024-02-24T11:29:30.813Z,97843.00
2024-02-24T11:32:13.383Z,97840.00
2024-02-24T11:34:45.770Z,97830.00
2024-02-24T11:37:18.567Z,97831.00
2024-02-24T11:39:48.106Z,97833.00
2024-02-24T11:42:15.739Z,97830.00
2024-02-24T11:44:47.938Z,97830.00
2024-02-24T11:47:19.694Z,97831.00
2024-02-24T11:49:49.497Z,97842.00
2024-02-24T11:52:17.541Z,97840.00
2024-02-24T11:54:46.320Z,97835.00
2024-02-24T11:57:14.474Z,97835.00
2024-02-24T11:59:44.720Z,97835.00
2024-02-24T12:02:15.835Z,97830.00
2024-02-24T12:04:42.844Z,97840.00
2024-02-24T12:07:10.386Z,97827.00
2024-02-24T12:09:37.394Z,97828.00
2024-02-24T12:12:06.146Z,97830.00
2024-02-24T12:14:34.011Z,97826.00
2024-02-24T12:17:02.996Z,97829.00
2024-02-24T12:19:36.562Z,97819.00
2024-02-24T12:22:09.977Z,97819.00
2024-02-24T12:24:38.996Z,97827.00
2024-02-24T12:27:09.665Z,97834.00
2024-02-24T12:29:36.634Z,97835.00
2024-02-24T12:32:05.498Z,97838.00
2024-02-24T12:34:33.622Z,97833.00
2024-02-24T12:37:04.422Z,97828.00
2024-02-24T12:39:32.282Z,97830.00
2024-02-24T12:41:59.448Z,97822.00
2024-02-24T12:44:32.289Z,97828.00
2024-02-24T12:47:08.773Z,97818.00
2024-02-24T12:49:41.966Z,97820.00
2024-02-24T12:52:09.332Z,97825.00
2024-02-24T12:54:36.443Z,97819.00
2024-02-24T12:57:27.190Z,97827.00
2024-02-24T12:59:59.601Z,97825.00
2024-02-24T13:02:32.244Z,97824.00
2024-02-24T13:05:02.085Z,97829.00
2024-02-24T13:07:42.361Z,97825.00
2024-02-24T13:10:16.920Z,97833.00
2024-02-24T13:12:45.558Z,97834.00
2024-02-24T13:15:15.243Z,97838.00
2024-02-24T13:17:47.365Z,97830.00
2024-02-24T13:20:14.557Z,97830.00
2024-02-24T13:22:48.752Z,97833.00
2024-02-24T13:25:22.640Z,97832.00
2024-02-24T13:27:49.825Z,97835.00
2024-02-24T13:30:16.996Z,97839.00
2024-02-24T13:32:44.309Z,97839.00
2024-02-24T13:35:11.496Z,97843.00
2024-02-24T13:37:40.976Z,97850.00
2024-02-24T13:40:13.925Z,97857.00
2024-02-24T13:42:44.545Z,97847.00
2024-02-24T13:45:12.032Z,97837.00
2024-02-24T13:47:38.999Z,97844.00
2024-02-24T13:50:10.612Z,97846.00
2024-02-24T13:52:54.701Z,97860.00
2024-02-24T13:55:26.071Z,97847.00
2024-02-24T13:57:53.930Z,97859.00
2024-02-24T14:00:24.571Z,97857.00
2024-02-24T14:02:56.407Z,97858.00
2024-02-24T14:05:34.499Z,97857.00
2024-02-24T14:08:05.035Z,97855.00
2024-02-24T14:10:39.640Z,97853.00
2024-02-24T14:13:09.577Z,97855.00
2024-02-24T14:15:52.831Z,97860.00
2024-02-24T14:18:20.078Z,97864.00
2024-02-24T14:21:45.102Z,97866.00
2024-02-24T14:24:17.756Z,97870.00
2024-02-24T14:26:49.791Z,97861.00
2024-02-24T14:29:22.789Z,97869.00
2024-02-24T14:31:56.084Z,97871.00
2024-02-24T14:34:31.901Z,97873.00
2024-02-24T14:37:13.575Z,97866.00
2024-02-24T14:39:43.673Z,97862.00
2024-02-24T14:42:15.968Z,97874.00
2024-02-24T14:44:53.210Z,97873.00
2024-02-24T14:47:27.727Z,97862.00
2024-02-24T14:49:55.059Z,97871.00
2024-02-24T14:52:32.077Z,97868.00
2024-02-24T14:54:59.300Z,97873.00
2024-02-24T14:57:35.194Z,97857.00
2024-02-24T15:00:13.982Z,97875.00
2024-02-24T15:03:04.227Z,97872.00
2024-02-24T15:05:37.192Z,97860.00
2024-02-24T15:08:09.866Z,97870.00
2024-02-24T15:10:37.186Z,97876.00
2024-02-24T15:13:13.799Z,97870.00
2024-02-24T15:15:50.007Z,97877.00
2024-02-24T15:18:18.320Z,97876.00
2024-02-24T15:21:16.133Z,97869.00
2024-02-24T15:23:46.275Z,97875.00
2024-02-24T15:26:37.273Z,97881.00
2024-02-24T15:29:07.665Z,97883.00
2024-02-24T15:31:42.357Z,97882.00
2024-02-24T15:34:09.603Z,97888.00
2024-02-24T15:36:36.944Z,97891.00
2024-02-24T15:39:04.192Z,97890.00
2024-02-24T15:41:33.606Z,97890.00
2024-02-24T15:44:02.049Z,97902.00
2024-02-24T15:46:29.033Z,97904.00
2024-02-24T15:48:56.165Z,97909.00
2024-02-24T15:51:23.189Z,97906.00
2024-02-24T15:53:50.206Z,97920.00
2024-02-24T15:56:17.324Z,97916.00
2024-02-24T15:58:45.822Z,97928.00
2024-02-24T16:01:13.391Z,97929.00
2024-02-24T16:03:40.256Z,97928.00
2024-02-24T16:06:07.542Z,97938.00
2024-02-24T16:08:34.824Z,97918.00
2024-02-24T16:11:01.691Z,97929.00
2024-02-24T16:13:28.605Z,97930.00
2024-02-24T16:15:55.997Z,97934.00
2024-02-24T16:18:23.449Z,97933.00
2024-02-24T16:20:50.486Z,97938.00
2024-02-24T16:23:19.504Z,97938.00
2024-02-24T16:25:46.538Z,97934.00
2024-02-24T16:28:14.595Z,97938.00
2024-02-24T16:30:41.516Z,97933.00
2024-02-24T16:33:08.613Z,97937.00
2024-02-24T16:35:36.317Z,97934.00
2024-02-24T16:38:03.295Z,97943.00
2024-02-24T16:40:32.932Z,97945.00
2024-02-24T16:42:59.992Z,97939.00
2024-02-24T16:45:26.862Z,97954.00
2024-02-24T16:47:53.807Z,97959.00
2024-02-24T16:50:21.129Z,97958.00
2024-02-24T16:52:48.704Z,97958.00
2024-02-24T16:55:15.486Z,97963.00
2024-02-24T16:57:42.325Z,97966.00
2024-02-24T17:11:07.690Z,97966.00
2024-02-24T17:13:34.480Z,97973.00
2024-02-24T17:16:05.762Z,97979.00
2024-02-24T17:18:36.715Z,97974.00
2024-02-24T17:23:51.749Z,97967.00
2024-02-24T17:26:18.717Z,97980.00
2024-02-24T17:28:48.803Z,97971.00
2024-02-24T17:31:16.791Z,97972.00
2024-02-24T17:33:48.270Z,97988.00
2024-02-24T17:36:25.485Z,97982.00
2024-02-24T17:38:52.677Z,97986.00
2024-02-24T17:41:20.192Z,97986.00
2024-02-24T17:43:46.955Z,97987.00
2024-02-24T17:46:16.294Z,97988.00
2024-02-24T17:48:48.375Z,97996.00
2024-02-24T17:51:16.128Z,97988.00
2024-02-24T17:53:42.967Z,98002.00
2024-02-24T17:56:09.978Z,98002.00
2024-02-24T17:58:44.524Z,98010.00
2024-02-24T18:01:14.696Z,98006.00
2024-02-24T18:03:41.775Z,98016.00
2024-02-24T18:06:10.705Z,98022.00
2024-02-24T18:08:37.663Z,98010.00
2024-02-24T18:11:04.962Z,98012.00
2024-02-24T18:13:32.009Z,98017.00
2024-02-24T18:15:58.916Z,98023.00
2024-02-24T18:18:25.881Z,98021.00
2024-02-24T18:20:55.609Z,98016.00
2024-02-24T18:23:22.480Z,98022.00
2024-02-24T18:25:49.431Z,98029.00
2024-02-24T18:28:16.439Z,98016.00
2024-02-24T18:30:48.433Z,98027.00
2024-02-24T18:33:15.454Z,98024.00
2024-02-24T18:35:42.473Z,98023.00
2024-02-24T18:38:10.056Z,98017.00
2024-02-24T18:40:36.745Z,98017.00
2024-02-24T18:43:03.593Z,98028.00
2024-02-24T18:45:30.420Z,98032.00
2024-02-24T18:47:57.261Z,98034.00
2024-02-24T18:50:24.221Z,98038.00
2024-02-24T18:52:51.001Z,98037.00
2024-02-24T18:55:18.134Z,98040.00
2024-02-24T18:57:44.925Z,98034.00
2024-02-24T19:00:12.237Z,98038.00
2024-02-24T19:03:10.540Z,98040.00
2024-02-24T19:05:37.674Z,98042.00
2024-02-24T19:08:05.301Z,98051.00
2024-02-24T19:10:33.391Z,98045.00
2024-02-24T19:13:00.336Z,98040.00
2024-02-24T19:15:27.433Z,98048.00
2024-02-24T19:17:54.605Z,98057.00
2024-02-24T19:20:21.604Z,98049.00
2024-02-24T19:22:48.475Z,98051.00
2024-02-24T19:25:16.180Z,98059.00
2024-02-24T19:27:43.194Z,98064.00
2024-02-24T19:30:10.744Z,98072.00
2024-02-24T19:32:37.774Z,98072.00
2024-02-24T19:35:08.700Z,98066.00
2024-02-24T19:37:35.757Z,98064.00
2024-02-24T19:41:17.628Z,98087.00
2024-02-24T19:43:44.552Z,98078.00
2024-02-24T19:46:11.391Z,98075.00
2024-02-24T19:48:47.166Z,98067.00
2024-02-24T19:51:14.441Z,98077.00
2024-02-24T19:53:44.118Z,98069.00
2024-02-24T19:56:11.116Z,98071.00
2024-02-24T19:58:45.044Z,98068.00
2024-02-24T20:01:18.322Z,98071.00
2024-02-24T20:03:45.219Z,98073.00
2024-02-24T20:06:13.197Z,98060.00
2024-02-24T20:08:40.267Z,98064.00
2024-02-24T20:11:07.225Z,98063.00
2024-02-24T20:13:35.374Z,98065.00
2024-02-24T20:16:04.722Z,98068.00
2024-02-24T20:18:36.859Z,98067.00
2024-02-24T20:21:06.880Z,98070.00
2024-02-24T20:23:37.049Z,98073.00
2024-02-24T20:26:04.068Z,98067.00
2024-02-24T20:28:30.946Z,98077.00
2024-02-24T20:30:57.980Z,98064.00
2024-02-24T20:33:27.515Z,98072.00
2024-02-24T20:35:54.742Z,98069.00
2024-02-24T20:38:21.774Z,98073.00
2024-02-24T20:40:48.929Z,98074.00
2024-02-24T20:43:15.844Z,98077.00
2024-02-24T20:45:42.906Z,98073.00
2024-02-24T20:48:11.131Z,98082.00
2024-02-24T20:50:38.195Z,98083.00
2024-02-24T20:53:05.436Z,98087.00
2024-02-24T20:55:35.340Z,98091.00
2024-02-24T20:58:02.408Z,98086.00
2024-02-24T21:00:29.342Z,98087.00
2024-02-24T21:02:56.474Z,98085.00
2024-02-24T21:05:23.518Z,98081.00
2024-02-24T21:07:50.407Z,98074.00
2024-02-24T21:10:17.436Z,98077.00
2024-02-24T21:12:44.428Z,98088.00
2024-02-24T21:15:11.554Z,98075.00
2024-02-24T21:17:38.592Z,98078.00
2024-02-24T21:20:06.413Z,98079.00
2024-02-24T21:22:33.704Z,98077.00
2024-02-24T21:25:00.886Z,98085.00
2024-02-24T21:27:28.022Z,98080.00
2024-02-24T21:29:54.948Z,98078.00
2024-02-24T21:32:22.149Z,98086.00
2024-02-24T21:34:49.492Z,98074.00
2024-02-24T21:37:21.280Z,98082.00
2024-02-24T21:39:49.352Z,98087.00
2024-02-24T21:42:16.710Z,98093.00
2024-02-24T21:44:44.100Z,98089.00
2024-02-24T21:47:11.542Z,98093.00
2024-02-24T21:49:39.203Z,98101.00
2024-02-24T21:52:08.471Z,98087.00
2024-02-24T21:54:35.858Z,98089.00
2024-02-24T21:57:03.497Z,98080.00
2024-02-24T21:59:30.683Z,98080.00
2024-02-24T22:01:58.507Z,98079.00
2024-02-24T22:04:25.607Z,98084.00
2024-02-24T22:06:55.633Z,98087.00
2024-02-24T22:09:22.636Z,98081.00
2024-02-24T22:11:49.568Z,98091.00
2024-02-24T22:14:22.286Z,98080.00
2024-02-24T22:16:49.826Z,98084.00
2024-02-24T22:19:16.947Z,98082.00
2024-02-24T22:21:43.971Z,98081.00
2024-02-24T22:24:10.905Z,98080.00
2024-02-24T22:26:39.972Z,98078.00
2024-02-24T22:29:06.973Z,98070.00
2024-02-24T22:31:33.767Z,98083.00
2024-02-24T22:34:00.691Z,98076.00
2024-02-24T22:36:27.768Z,98075.00
2024-02-24T22:38:54.754Z,98069.00
2024-02-24T22:41:24.658Z,98071.00
2024-02-24T22:43:52.261Z,98074.00
2024-02-24T22:46:19.942Z,98078.00
2024-02-24T22:48:47.235Z,98078.00
2024-02-24T22:51:14.375Z,98076.00
2024-02-24T22:53:42.230Z,98078.00
2024-02-24T22:56:09.169Z,98074.00
2024-02-24T22:58:35.954Z,98090.00
2024-02-24T23:01:03.721Z,98086.00
2024-02-24T23:03:31.161Z,98084.00
2024-02-24T23:05:58.107Z,98082.00
2024-02-24T23:08:25.029Z,98081.00
2024-02-24T23:10:52.160Z,98097.00
2024-02-24T23:13:19.498Z,98098.00
2024-02-24T23:15:46.316Z,98102.00
2024-02-24T23:18:13.458Z,98103.00
2024-02-24T23:20:40.422Z,98103.00
2024-02-24T23:23:07.508Z,98106.00
2024-02-24T23:25:34.437Z,98097.00
2024-02-24T23:28:02.279Z,98098.00
2024-02-24T23:30:29.123Z,98111.00
2024-02-24T23:32:56.073Z,98102.00
2024-02-24T23:35:23.124Z,98099.00
2024-02-24T23:37:50.154Z,98087.00
2024-02-24T23:40:17.286Z,98100.00
2024-02-24T23:42:44.128Z,98086.00
2024-02-24T23:45:11.320Z,98086.00
2024-02-24T23:47:38.278Z,98088.00
2024-02-24T23:50:05.845Z,98077.00
2024-02-24T23:52:32.674Z,98087.00
2024-02-24T23:55:01.101Z,98082.00
2024-02-24T23:57:33.510Z,98082.00
